sensor_id;sensor_type;location;lat;lon;timestamp;P1;durP1;ratioP1;P2;durP2;ratioP2
26082;SDS011;13848;49.018;12.078;2023-02-01T00:01:53;8.13;;;3.35;;
26082;SDS011;13848;49.018;12.078;2023-02-01T00:04:21;9.32;;;3.40;;
26082;SDS011;13848;49.018;12.078;2023-02-01T00:06:47;4.95;;;2.70;;
26082;SDS011;13848;49.018;12.078;2023-02-01T00:09:13;4.35;;;2.90;;
26082;SDS011;13848;49.018;12.078;2023-02-01T00:11:39;6.68;;;3.22;;
26082;SDS011;13848;49.018;12.078;2023-02-01T00:14:05;6.35;;;2.75;;
26082;SDS011;13848;49.018;12.078;2023-02-01T00:16:31;5.78;;;3.03;;
26082;SDS011;13848;49.018;12.078;2023-02-01T00:18:59;6.55;;;3.17;;
26082;SDS011;13848;49.018;12.078;2023-02-01T00:21:28;6.65;;;3.28;;
26082;SDS011;13848;49.018;12.078;2023-02-01T00:23:54;7.07;;;3.17;;
26082;SDS011;13848;49.018;12.078;2023-02-01T00:26:22;4.82;;;3.15;;
26082;SDS011;13848;49.018;12.078;2023-02-01T00:28:53;7.07;;;3.22;;
26082;SDS011;13848;49.018;12.078;2023-02-01T00:31:18;7.28;;;3.55;;
26082;SDS011;13848;49.018;12.078;2023-02-01T00:33:46;8.25;;;3.45;;
26082;SDS011;13848;49.018;12.078;2023-02-01T00:36:12;5.30;;;3.33;;
26082;SDS011;13848;49.018;12.078;2023-02-01T00:38:40;5.63;;;3.13;;
26082;SDS011;13848;49.018;12.078;2023-02-01T00:41:07;8.25;;;3.22;;
26082;SDS011;13848;49.018;12.078;2023-02-01T00:43:36;6.45;;;3.83;;
26082;SDS011;13848;49.018;12.078;2023-02-01T00:46:02;7.43;;;3.75;;
26082;SDS011;13848;49.018;12.078;2023-02-01T00:48:28;5.97;;;3.20;;
26082;SDS011;13848;49.018;12.078;2023-02-01T00:50:58;6.28;;;3.40;;
26082;SDS011;13848;49.018;12.078;2023-02-01T00:53:24;6.10;;;3.38;;
26082;SDS011;13848;49.018;12.078;2023-02-01T00:55:51;6.18;;;3.13;;
26082;SDS011;13848;49.018;12.078;2023-02-01T00:58:17;5.97;;;3.42;;
26082;SDS011;13848;49.018;12.078;2023-02-01T01:00:43;7.32;;;3.70;;
26082;SDS011;13848;49.018;12.078;2023-02-01T01:03:09;5.35;;;3.20;;
26082;SDS011;13848;49.018;12.078;2023-02-01T01:05:35;10.52;;;3.35;;
26082;SDS011;13848;49.018;12.078;2023-02-01T01:08:01;5.78;;;3.58;;
26082;SDS011;13848;49.018;12.078;2023-02-01T01:10:27;5.85;;;3.85;;
26082;SDS011;13848;49.018;12.078;2023-02-01T01:12:55;7.55;;;3.83;;
26082;SDS011;13848;49.018;12.078;2023-02-01T01:15:21;5.72;;;3.25;;
26082;SDS011;13848;49.018;12.078;2023-02-01T01:17:46;6.88;;;3.60;;
26082;SDS011;13848;49.018;12.078;2023-02-01T01:20:12;5.78;;;3.58;;
26082;SDS011;13848;49.018;12.078;2023-02-01T01:22:38;7.63;;;3.88;;
26082;SDS011;13848;49.018;12.078;2023-02-01T01:25:04;6.35;;;3.55;;
26082;SDS011;13848;49.018;12.078;2023-02-01T01:27:31;7.07;;;3.28;;
26082;SDS011;13848;49.018;12.078;2023-02-01T01:29:58;6.40;;;3.60;;
26082;SDS011;13848;49.018;12.078;2023-02-01T01:32:24;6.95;;;3.95;;
26082;SDS011;13848;49.018;12.078;2023-02-01T01:34:50;5.95;;;3.75;;
26082;SDS011;13848;49.018;12.078;2023-02-01T01:37:16;6.03;;;3.17;;
26082;SDS011;13848;49.018;12.078;2023-02-01T01:39:42;5.35;;;3.25;;
26082;SDS011;13848;49.018;12.078;2023-02-01T01:42:09;5.53;;;3.80;;
26082;SDS011;13848;49.018;12.078;2023-02-01T01:47:24;8.07;;;3.28;;
26082;SDS011;13848;49.018;12.078;2023-02-01T01:49:50;7.28;;;3.33;;
26082;SDS011;13848;49.018;12.078;2023-02-01T01:52:16;5.80;;;3.70;;
26082;SDS011;13848;49.018;12.078;2023-02-01T01:54:45;5.22;;;3.25;;
26082;SDS011;13848;49.018;12.078;2023-02-01T01:57:15;4.90;;;3.13;;
26082;SDS011;13848;49.018;12.078;2023-02-01T01:59:46;6.40;;;3.25;;
26082;SDS011;13848;49.018;12.078;2023-02-01T02:02:14;6.22;;;3.13;;
26082;SDS011;13848;49.018;12.078;2023-02-01T02:04:42;5.63;;;3.22;;
26082;SDS011;13848;49.018;12.078;2023-02-01T02:07:09;6.22;;;3.78;;
26082;SDS011;13848;49.018;12.078;2023-02-01T02:09:38;5.55;;;3.28;;
26082;SDS011;13848;49.018;12.078;2023-02-01T02:12:05;5.93;;;3.17;;
26082;SDS011;13848;49.018;12.078;2023-02-01T02:14:31;4.95;;;3.10;;
26082;SDS011;13848;49.018;12.078;2023-02-01T02:17:02;6.05;;;3.03;;
26082;SDS011;13848;49.018;12.078;2023-02-01T02:23:05;4.13;;;2.80;;
26082;SDS011;13848;49.018;12.078;2023-02-01T02:25:50;5.38;;;2.80;;
26082;SDS011;13848;49.018;12.078;2023-02-01T02:32:04;4.22;;;2.88;;
26082;SDS011;13848;49.018;12.078;2023-02-01T02:35:01;4.25;;;2.75;;
26082;SDS011;13848;49.018;12.078;2023-02-01T02:37:35;4.15;;;2.88;;
26082;SDS011;13848;49.018;12.078;2023-02-01T02:40:08;5.22;;;3.20;;
26082;SDS011;13848;49.018;12.078;2023-02-01T02:42:43;3.80;;;2.72;;
26082;SDS011;13848;49.018;12.078;2023-02-01T02:45:17;4.57;;;2.90;;
26082;SDS011;13848;49.018;12.078;2023-02-01T02:47:50;4.72;;;2.90;;
26082;SDS011;13848;49.018;12.078;2023-02-01T02:50:23;4.00;;;2.72;;
26082;SDS011;13848;49.018;12.078;2023-02-01T02:52:56;5.50;;;2.58;;
26082;SDS011;13848;49.018;12.078;2023-02-01T02:55:27;5.18;;;3.08;;
26082;SDS011;13848;49.018;12.078;2023-02-01T02:57:55;5.78;;;2.60;;
26082;SDS011;13848;49.018;12.078;2023-02-01T03:00:27;4.15;;;2.60;;
26082;SDS011;13848;49.018;12.078;2023-02-01T03:02:56;5.07;;;3.05;;
26082;SDS011;13848;49.018;12.078;2023-02-01T03:05:23;4.53;;;2.78;;
26082;SDS011;13848;49.018;12.078;2023-02-01T03:07:53;4.32;;;2.95;;
26082;SDS011;13848;49.018;12.078;2023-02-01T03:10:29;2.95;;;2.42;;
26082;SDS011;13848;49.018;12.078;2023-02-01T03:13:05;4.45;;;2.30;;
26082;SDS011;13848;49.018;12.078;2023-02-01T03:15:36;3.90;;;2.60;;
26082;SDS011;13848;49.018;12.078;2023-02-01T03:18:07;5.55;;;3.03;;
26082;SDS011;13848;49.018;12.078;2023-02-01T03:20:40;3.28;;;2.47;;
26082;SDS011;13848;49.018;12.078;2023-02-01T03:23:10;3.70;;;2.70;;
26082;SDS011;13848;49.018;12.078;2023-02-01T03:25:40;3.95;;;2.60;;
26082;SDS011;13848;49.018;12.078;2023-02-01T03:28:07;5.50;;;2.63;;
26082;SDS011;13848;49.018;12.078;2023-02-01T03:30:36;6.45;;;2.83;;
26082;SDS011;13848;49.018;12.078;2023-02-01T03:33:04;4.03;;;2.50;;
26082;SDS011;13848;49.018;12.078;2023-02-01T03:35:36;3.28;;;2.30;;
26082;SDS011;13848;49.018;12.078;2023-02-01T03:38:08;5.32;;;2.70;;
26082;SDS011;13848;49.018;12.078;2023-02-01T03:40:43;6.35;;;2.97;;
26082;SDS011;13848;49.018;12.078;2023-02-01T03:43:14;5.25;;;3.00;;
26082;SDS011;13848;49.018;12.078;2023-02-01T03:45:45;4.45;;;2.80;;
26082;SDS011;13848;49.018;12.078;2023-02-01T03:48:15;3.15;;;2.60;;
26082;SDS011;13848;49.018;12.078;2023-02-01T03:50:44;3.78;;;2.40;;
26082;SDS011;13848;49.018;12.078;2023-02-01T03:53:16;4.55;;;2.42;;
26082;SDS011;13848;49.018;12.078;2023-02-01T03:55:44;5.13;;;2.47;;
26082;SDS011;13848;49.018;12.078;2023-02-01T03:58:12;4.72;;;2.90;;
26082;SDS011;13848;49.018;12.078;2023-02-01T04:00:40;4.05;;;2.80;;
26082;SDS011;13848;49.018;12.078;2023-02-01T04:03:09;4.00;;;2.60;;
26082;SDS011;13848;49.018;12.078;2023-02-01T04:05:35;4.05;;;2.65;;
26082;SDS011;13848;49.018;12.078;2023-02-01T04:08:02;4.03;;;2.60;;
26082;SDS011;13848;49.018;12.078;2023-02-01T04:10:29;3.92;;;2.60;;
26082;SDS011;13848;49.018;12.078;2023-02-01T04:12:55;3.47;;;2.47;;
26082;SDS011;13848;49.018;12.078;2023-02-01T04:15:20;4.90;;;2.92;;
26082;SDS011;13848;49.018;12.078;2023-02-01T04:17:46;7.05;;;2.65;;
26082;SDS011;13848;49.018;12.078;2023-02-01T04:20:12;4.53;;;2.33;;
26082;SDS011;13848;49.018;12.078;2023-02-01T04:22:38;4.53;;;2.50;;
26082;SDS011;13848;49.018;12.078;2023-02-01T04:25:07;4.97;;;2.67;;
26082;SDS011;13848;49.018;12.078;2023-02-01T04:27:33;5.88;;;2.20;;
26082;SDS011;13848;49.018;12.078;2023-02-01T04:30:00;2.75;;;2.00;;
26082;SDS011;13848;49.018;12.078;2023-02-01T04:32:25;3.75;;;2.10;;
26082;SDS011;13848;49.018;12.078;2023-02-01T04:34:52;2.65;;;1.75;;
26082;SDS011;13848;49.018;12.078;2023-02-01T04:37:17;2.80;;;2.15;;
26082;SDS011;13848;49.018;12.078;2023-02-01T04:39:44;3.70;;;2.28;;
26082;SDS011;13848;49.018;12.078;2023-02-01T04:42:11;3.45;;;2.55;;
26082;SDS011;13848;49.018;12.078;2023-02-01T04:44:37;3.22;;;2.05;;
26082;SDS011;13848;49.018;12.078;2023-02-01T04:47:04;2.88;;;1.98;;
26082;SDS011;13848;49.018;12.078;2023-02-01T04:49:30;4.55;;;2.13;;
26082;SDS011;13848;49.018;12.078;2023-02-01T04:51:56;2.15;;;1.95;;
26082;SDS011;13848;49.018;12.078;2023-02-01T04:54:22;2.05;;;1.70;;
26082;SDS011;13848;49.018;12.078;2023-02-01T04:56:48;2.50;;;1.85;;
26082;SDS011;13848;49.018;12.078;2023-02-01T04:59:15;2.20;;;1.60;;
26082;SDS011;13848;49.018;12.078;2023-02-01T05:01:41;4.25;;;2.10;;
26082;SDS011;13848;49.018;12.078;2023-02-01T05:04:07;3.88;;;2.13;;
26082;SDS011;13848;49.018;12.078;2023-02-01T05:06:33;3.20;;;1.95;;
26082;SDS011;13848;49.018;12.078;2023-02-01T05:08:58;3.45;;;1.90;;
26082;SDS011;13848;49.018;12.078;2023-02-01T05:11:24;4.07;;;1.85;;
26082;SDS011;13848;49.018;12.078;2023-02-01T05:13:50;2.47;;;1.90;;
26082;SDS011;13848;49.018;12.078;2023-02-01T05:16:18;3.05;;;1.65;;
26082;SDS011;13848;49.018;12.078;2023-02-01T05:18:44;1.90;;;1.60;;
26082;SDS011;13848;49.018;12.078;2023-02-01T05:21:10;2.60;;;1.88;;
26082;SDS011;13848;49.018;12.078;2023-02-01T05:23:36;1.90;;;1.60;;
26082;SDS011;13848;49.018;12.078;2023-02-01T05:26:02;3.17;;;2.00;;
26082;SDS011;13848;49.018;12.078;2023-02-01T05:28:28;2.15;;;1.70;;
26082;SDS011;13848;49.018;12.078;2023-02-01T05:30:54;2.83;;;1.55;;
26082;SDS011;13848;49.018;12.078;2023-02-01T05:33:21;2.30;;;1.67;;
26082;SDS011;13848;49.018;12.078;2023-02-01T05:35:47;4.15;;;2.53;;
26082;SDS011;13848;49.018;12.078;2023-02-01T05:38:13;3.03;;;1.92;;
26082;SDS011;13848;49.018;12.078;2023-02-01T05:40:39;4.28;;;2.10;;
26082;SDS011;13848;49.018;12.078;2023-02-01T05:43:05;1.88;;;1.48;;
26082;SDS011;13848;49.018;12.078;2023-02-01T05:45:31;3.92;;;1.80;;
26082;SDS011;13848;49.018;12.078;2023-02-01T05:47:57;2.33;;;1.67;;
26082;SDS011;13848;49.018;12.078;2023-02-01T05:50:24;2.38;;;1.75;;
26082;SDS011;13848;49.018;12.078;2023-02-01T05:52:50;4.40;;;1.95;;
26082;SDS011;13848;49.018;12.078;2023-02-01T05:55:16;3.58;;;1.92;;
26082;SDS011;13848;49.018;12.078;2023-02-01T05:57:42;5.07;;;1.67;;
26082;SDS011;13848;49.018;12.078;2023-02-01T06:00:08;2.08;;;1.60;;
26082;SDS011;13848;49.018;12.078;2023-02-01T06:02:35;3.10;;;2.03;;
26082;SDS011;13848;49.018;12.078;2023-02-01T06:05:01;3.67;;;1.55;;
26082;SDS011;13848;49.018;12.078;2023-02-01T06:07:28;2.92;;;2.05;;
26082;SDS011;13848;49.018;12.078;2023-02-01T06:09:54;1.92;;;1.58;;
26082;SDS011;13848;49.018;12.078;2023-02-01T06:12:20;2.92;;;1.83;;
26082;SDS011;13848;49.018;12.078;2023-02-01T06:14:46;1.90;;;1.45;;
26082;SDS011;13848;49.018;12.078;2023-02-01T06:17:12;2.25;;;1.65;;
26082;SDS011;13848;49.018;12.078;2023-02-01T06:19:38;2.75;;;1.83;;
26082;SDS011;13848;49.018;12.078;2023-02-01T06:22:03;4.22;;;1.90;;
26082;SDS011;13848;49.018;12.078;2023-02-01T06:24:31;3.97;;;2.17;;
26082;SDS011;13848;49.018;12.078;2023-02-01T06:26:57;2.70;;;1.77;;
26082;SDS011;13848;49.018;12.078;2023-02-01T06:29:23;3.85;;;2.20;;
26082;SDS011;13848;49.018;12.078;2023-02-01T06:31:49;5.63;;;3.22;;
26082;SDS011;13848;49.018;12.078;2023-02-01T06:34:15;2.78;;;2.00;;
26082;SDS011;13848;49.018;12.078;2023-02-01T06:36:41;4.03;;;1.80;;
26082;SDS011;13848;49.018;12.078;2023-02-01T06:39:07;4.18;;;1.90;;
26082;SDS011;13848;49.018;12.078;2023-02-01T06:41:34;4.15;;;2.00;;
26082;SDS011;13848;49.018;12.078;2023-02-01T06:44:00;3.95;;;1.92;;
26082;SDS011;13848;49.018;12.078;2023-02-01T06:46:26;3.08;;;1.75;;
26082;SDS011;13848;49.018;12.078;2023-02-01T06:48:52;3.58;;;1.83;;
26082;SDS011;13848;49.018;12.078;2023-02-01T06:51:19;3.95;;;1.90;;
26082;SDS011;13848;49.018;12.078;2023-02-01T06:53:46;2.60;;;1.67;;
26082;SDS011;13848;49.018;12.078;2023-02-01T06:56:12;4.07;;;1.75;;
26082;SDS011;13848;49.018;12.078;2023-02-01T06:58:39;3.70;;;1.77;;
26082;SDS011;13848;49.018;12.078;2023-02-01T07:01:05;2.17;;;1.77;;
26082;SDS011;13848;49.018;12.078;2023-02-01T07:03:32;2.78;;;1.90;;
26082;SDS011;13848;49.018;12.078;2023-02-01T07:05:58;2.85;;;1.90;;
26082;SDS011;13848;49.018;12.078;2023-02-01T07:08:24;2.33;;;1.85;;
26082;SDS011;13848;49.018;12.078;2023-02-01T07:10:51;2.28;;;1.73;;
26082;SDS011;13848;49.018;12.078;2023-02-01T07:13:17;2.70;;;1.73;;
26082;SDS011;13848;49.018;12.078;2023-02-01T07:15:45;3.63;;;2.00;;
26082;SDS011;13848;49.018;12.078;2023-02-01T07:18:11;3.10;;;1.90;;
26082;SDS011;13848;49.018;12.078;2023-02-01T07:20:37;4.63;;;2.03;;
26082;SDS011;13848;49.018;12.078;2023-02-01T07:23:03;2.40;;;1.90;;
26082;SDS011;13848;49.018;12.078;2023-02-01T07:25:28;2.10;;;1.65;;
26082;SDS011;13848;49.018;12.078;2023-02-01T07:27:54;5.25;;;2.55;;
26082;SDS011;13848;49.018;12.078;2023-02-01T07:30:20;3.35;;;2.30;;
26082;SDS011;13848;49.018;12.078;2023-02-01T07:32:47;4.43;;;2.45;;
26082;SDS011;13848;49.018;12.078;2023-02-01T07:35:13;3.13;;;2.28;;
26082;SDS011;13848;49.018;12.078;2023-02-01T07:37:39;4.50;;;2.00;;
26082;SDS011;13848;49.018;12.078;2023-02-01T07:40:06;3.20;;;2.10;;
26082;SDS011;13848;49.018;12.078;2023-02-01T07:42:33;3.78;;;2.35;;
26082;SDS011;13848;49.018;12.078;2023-02-01T07:44:59;3.78;;;2.30;;
26082;SDS011;13848;49.018;12.078;2023-02-01T07:47:25;4.85;;;2.20;;
26082;SDS011;13848;49.018;12.078;2023-02-01T07:49:52;3.75;;;2.38;;
26082;SDS011;13848;49.018;12.078;2023-02-01T07:52:18;2.75;;;2.33;;
26082;SDS011;13848;49.018;12.078;2023-02-01T07:54:44;4.95;;;2.40;;
26082;SDS011;13848;49.018;12.078;2023-02-01T07:57:11;3.00;;;2.03;;
26082;SDS011;13848;49.018;12.078;2023-02-01T07:59:37;4.47;;;2.50;;
26082;SDS011;13848;49.018;12.078;2023-02-01T08:02:03;3.10;;;2.28;;
26082;SDS011;13848;49.018;12.078;2023-02-01T08:04:29;2.67;;;2.10;;
26082;SDS011;13848;49.018;12.078;2023-02-01T08:06:56;3.88;;;2.03;;
26082;SDS011;13848;49.018;12.078;2023-02-01T08:09:23;3.25;;;2.13;;
26082;SDS011;13848;49.018;12.078;2023-02-01T08:11:48;3.00;;;1.90;;
26082;SDS011;13848;49.018;12.078;2023-02-01T08:14:14;4.25;;;2.08;;
26082;SDS011;13848;49.018;12.078;2023-02-01T08:16:40;3.90;;;1.95;;
26082;SDS011;13848;49.018;12.078;2023-02-01T08:19:06;2.47;;;1.80;;
26082;SDS011;13848;49.018;12.078;2023-02-01T08:21:32;5.85;;;2.00;;
26082;SDS011;13848;49.018;12.078;2023-02-01T08:24:00;3.17;;;2.03;;
26082;SDS011;13848;49.018;12.078;2023-02-01T08:26:26;3.42;;;2.00;;
26082;SDS011;13848;49.018;12.078;2023-02-01T08:28:53;3.92;;;2.00;;
26082;SDS011;13848;49.018;12.078;2023-02-01T08:31:21;2.38;;;2.00;;
26082;SDS011;13848;49.018;12.078;2023-02-01T08:33:48;4.18;;;1.80;;
26082;SDS011;13848;49.018;12.078;2023-02-01T08:36:27;2.15;;;1.52;;
26082;SDS011;13848;49.018;12.078;2023-02-01T08:38:55;3.42;;;1.90;;
26082;SDS011;13848;49.018;12.078;2023-02-01T08:41:29;2.20;;;1.60;;
26082;SDS011;13848;49.018;12.078;2023-02-01T08:43:55;4.05;;;1.92;;
26082;SDS011;13848;49.018;12.078;2023-02-01T08:46:22;2.70;;;2.10;;
26082;SDS011;13848;49.018;12.078;2023-02-01T08:48:48;5.07;;;1.50;;
26082;SDS011;13848;49.018;12.078;2023-02-01T08:51:16;6.28;;;1.60;;
26082;SDS011;13848;49.018;12.078;2023-02-01T08:53:43;4.35;;;1.58;;
26082;SDS011;13848;49.018;12.078;2023-02-01T08:56:10;2.20;;;1.50;;
26082;SDS011;13848;49.018;12.078;2023-02-01T08:58:38;2.30;;;1.50;;
26082;SDS011;13848;49.018;12.078;2023-02-01T09:01:05;4.60;;;1.50;;
26082;SDS011;13848;49.018;12.078;2023-02-01T09:03:32;3.15;;;1.48;;
26082;SDS011;13848;49.018;12.078;2023-02-01T09:06:01;2.25;;;1.40;;
26082;SDS011;13848;49.018;12.078;2023-02-01T09:08:28;1.58;;;1.25;;
26082;SDS011;13848;49.018;12.078;2023-02-01T09:10:57;3.15;;;1.20;;
26082;SDS011;13848;49.018;12.078;2023-02-01T09:13:24;1.42;;;0.80;;
26082;SDS011;13848;49.018;12.078;2023-02-01T09:15:51;2.05;;;1.48;;
26082;SDS011;13848;49.018;12.078;2023-02-01T09:18:17;1.92;;;1.15;;
26082;SDS011;13848;49.018;12.078;2023-02-01T09:20:43;3.78;;;1.27;;
26082;SDS011;13848;49.018;12.078;2023-02-01T09:23:09;1.23;;;1.10;;
26082;SDS011;13848;49.018;12.078;2023-02-01T09:25:36;4.93;;;1.10;;
26082;SDS011;13848;49.018;12.078;2023-02-01T09:28:02;0.90;;;0.80;;
26082;SDS011;13848;49.018;12.078;2023-02-01T09:30:28;2.95;;;1.10;;
26082;SDS011;13848;49.018;12.078;2023-02-01T09:32:55;2.38;;;0.95;;
26082;SDS011;13848;49.018;12.078;2023-02-01T09:35:21;1.77;;;1.40;;
26082;SDS011;13848;49.018;12.078;2023-02-01T09:37:47;5.25;;;1.35;;
26082;SDS011;13848;49.018;12.078;2023-02-01T09:40:13;3.90;;;1.20;;
26082;SDS011;13848;49.018;12.078;2023-02-01T09:43:00;2.22;;;1.10;;
26082;SDS011;13848;49.018;12.078;2023-02-01T09:45:44;1.92;;;1.20;;
26082;SDS011;13848;49.018;12.078;2023-02-01T09:48:19;4.53;;;1.27;;
26082;SDS011;13848;49.018;12.078;2023-02-01T09:50:50;2.08;;;1.20;;
26082;SDS011;13848;49.018;12.078;2023-02-01T09:53:21;3.22;;;1.17;;
26082;SDS011;13848;49.018;12.078;2023-02-01T09:55:53;2.33;;;1.10;;
26082;SDS011;13848;49.018;12.078;2023-02-01T09:58:22;2.38;;;1.20;;
26082;SDS011;13848;49.018;12.078;2023-02-01T10:00:55;2.30;;;1.25;;
26082;SDS011;13848;49.018;12.078;2023-02-01T10:03:24;2.38;;;1.33;;
26082;SDS011;13848;49.018;12.078;2023-02-01T10:06:00;2.53;;;1.42;;
26082;SDS011;13848;49.018;12.078;2023-02-01T10:08:39;2.78;;;1.52;;
26082;SDS011;13848;49.018;12.078;2023-02-01T10:11:28;4.38;;;1.70;;
26082;SDS011;13848;49.018;12.078;2023-02-01T10:14:04;2.95;;;1.58;;
26082;SDS011;13848;49.018;12.078;2023-02-01T10:16:38;3.50;;;1.70;;
26082;SDS011;13848;49.018;12.078;2023-02-01T10:19:22;3.28;;;1.45;;
26082;SDS011;13848;49.018;12.078;2023-02-01T10:22:00;2.08;;;1.70;;
26082;SDS011;13848;49.018;12.078;2023-02-01T10:24:34;4.97;;;1.90;;
26082;SDS011;13848;49.018;12.078;2023-02-01T10:27:08;5.63;;;2.10;;
26082;SDS011;13848;49.018;12.078;2023-02-01T10:29:43;2.95;;;2.20;;
26082;SDS011;13848;49.018;12.078;2023-02-01T10:32:12;3.72;;;2.15;;
26082;SDS011;13848;49.018;12.078;2023-02-01T10:34:41;7.90;;;2.45;;
26082;SDS011;13848;49.018;12.078;2023-02-01T10:37:13;7.70;;;2.13;;
26082;SDS011;13848;49.018;12.078;2023-02-01T10:39:46;7.07;;;2.40;;
26082;SDS011;13848;49.018;12.078;2023-02-01T10:42:12;5.63;;;2.25;;
26082;SDS011;13848;49.018;12.078;2023-02-01T10:44:38;5.18;;;2.50;;
26082;SDS011;13848;49.018;12.078;2023-02-01T10:47:08;7.85;;;1.95;;
26082;SDS011;13848;49.018;12.078;2023-02-01T10:49:40;4.07;;;2.22;;
26082;SDS011;13848;49.018;12.078;2023-02-01T10:52:13;5.80;;;1.92;;
26082;SDS011;13848;49.018;12.078;2023-02-01T10:54:42;5.28;;;2.30;;
26082;SDS011;13848;49.018;12.078;2023-02-01T10:57:08;7.13;;;2.53;;
26082;SDS011;13848;49.018;12.078;2023-02-01T10:59:36;6.40;;;2.28;;
26082;SDS011;13848;49.018;12.078;2023-02-01T11:02:18;5.55;;;2.33;;
26082;SDS011;13848;49.018;12.078;2023-02-01T11:04:50;7.55;;;2.17;;
26082;SDS011;13848;49.018;12.078;2023-02-01T11:07:25;5.97;;;2.17;;
26082;SDS011;13848;49.018;12.078;2023-02-01T11:09:52;4.78;;;1.98;;
26082;SDS011;13848;49.018;12.078;2023-02-01T11:12:30;5.10;;;1.80;;
26082;SDS011;13848;49.018;12.078;2023-02-01T11:14:58;5.38;;;1.80;;
26082;SDS011;13848;49.018;12.078;2023-02-01T11:17:30;8.20;;;2.07;;
26082;SDS011;13848;49.018;12.078;2023-02-01T11:20:02;11.40;;;2.00;;
26082;SDS011;13848;49.018;12.078;2023-02-01T11:22:31;9.88;;;2.13;;
26082;SDS011;13848;49.018;12.078;2023-02-01T11:24:58;4.78;;;2.30;;
26082;SDS011;13848;49.018;12.078;2023-02-01T11:27:26;4.55;;;2.10;;
26082;SDS011;13848;49.018;12.078;2023-02-01T11:29:54;5.28;;;1.85;;
26082;SDS011;13848;49.018;12.078;2023-02-01T11:32:24;5.85;;;1.83;;
26082;SDS011;13848;49.018;12.078;2023-02-01T11:34:52;5.50;;;2.17;;
26082;SDS011;13848;49.018;12.078;2023-02-01T11:37:23;5.50;;;2.22;;
26082;SDS011;13848;49.018;12.078;2023-02-01T11:39:55;7.45;;;2.25;;
26082;SDS011;13848;49.018;12.078;2023-02-01T11:42:22;8.18;;;2.45;;
26082;SDS011;13848;49.018;12.078;2023-02-01T11:44:49;4.15;;;1.90;;
26082;SDS011;13848;49.018;12.078;2023-02-01T11:47:19;9.65;;;2.17;;
26082;SDS011;13848;49.018;12.078;2023-02-01T11:49:46;4.88;;;1.85;;
26082;SDS011;13848;49.018;12.078;2023-02-01T11:52:15;6.97;;;2.13;;
26082;SDS011;13848;49.018;12.078;2023-02-01T11:54:51;5.07;;;2.08;;
26082;SDS011;13848;49.018;12.078;2023-02-01T11:57:32;6.80;;;2.28;;
26082;SDS011;13848;49.018;12.078;2023-02-01T12:00:18;4.10;;;1.70;;
26082;SDS011;13848;49.018;12.078;2023-02-01T12:06:04;7.10;;;1.70;;
26082;SDS011;13848;49.018;12.078;2023-02-01T12:08:46;4.90;;;1.85;;
26082;SDS011;13848;49.018;12.078;2023-02-01T12:11:45;4.72;;;2.17;;
26082;SDS011;13848;49.018;12.078;2023-02-01T12:14:23;6.03;;;1.98;;
26082;SDS011;13848;49.018;12.078;2023-02-01T12:17:06;5.00;;;1.70;;
26082;SDS011;13848;49.018;12.078;2023-02-01T12:19:56;7.13;;;1.60;;
26082;SDS011;13848;49.018;12.078;2023-02-01T12:22:36;2.90;;;1.58;;
26082;SDS011;13848;49.018;12.078;2023-02-01T12:25:18;5.50;;;2.08;;
26082;SDS011;13848;49.018;12.078;2023-02-01T12:27:58;8.75;;;1.77;;
26082;SDS011;13848;49.018;12.078;2023-02-01T12:30:50;4.47;;;1.60;;
26082;SDS011;13848;49.018;12.078;2023-02-01T12:33:30;5.03;;;1.90;;
26082;SDS011;13848;49.018;12.078;2023-02-01T12:36:15;7.20;;;2.13;;
26082;SDS011;13848;49.018;12.078;2023-02-01T12:38:46;5.88;;;2.10;;
26082;SDS011;13848;49.018;12.078;2023-02-01T12:41:27;5.88;;;2.15;;
26082;SDS011;13848;49.018;12.078;2023-02-01T12:44:03;6.38;;;1.98;;
26082;SDS011;13848;49.018;12.078;2023-02-01T12:46:35;4.82;;;1.48;;
26082;SDS011;13848;49.018;12.078;2023-02-01T12:51:36;6.85;;;1.77;;
26082;SDS011;13848;49.018;12.078;2023-02-01T12:54:06;9.00;;;1.90;;
26082;SDS011;13848;49.018;12.078;2023-02-01T12:56:42;5.63;;;1.80;;
26082;SDS011;13848;49.018;12.078;2023-02-01T12:59:16;5.63;;;1.90;;
26082;SDS011;13848;49.018;12.078;2023-02-01T13:01:46;4.28;;;1.92;;
26082;SDS011;13848;49.018;12.078;2023-02-01T13:04:19;8.30;;;2.08;;
26082;SDS011;13848;49.018;12.078;2023-02-01T13:06:51;3.90;;;2.00;;
26082;SDS011;13848;49.018;12.078;2023-02-01T13:09:21;5.95;;;1.75;;
26082;SDS011;13848;49.018;12.078;2023-02-01T13:11:53;7.70;;;1.83;;
26082;SDS011;13848;49.018;12.078;2023-02-01T13:14:27;9.13;;;2.63;;
26082;SDS011;13848;49.018;12.078;2023-02-01T13:16:59;6.05;;;1.90;;
26082;SDS011;13848;49.018;12.078;2023-02-01T13:19:29;4.78;;;2.17;;
26082;SDS011;13848;49.018;12.078;2023-02-01T13:22:02;6.38;;;2.35;;
26082;SDS011;13848;49.018;12.078;2023-02-01T13:24:33;6.25;;;2.45;;
26082;SDS011;13848;49.018;12.078;2023-02-01T13:27:04;5.28;;;2.05;;
26082;SDS011;13848;49.018;12.078;2023-02-01T13:29:32;7.00;;;2.13;;
26082;SDS011;13848;49.018;12.078;2023-02-01T13:32:06;8.52;;;2.00;;
26082;SDS011;13848;49.018;12.078;2023-02-01T13:34:49;5.68;;;1.95;;
26082;SDS011;13848;49.018;12.078;2023-02-01T13:37:36;6.45;;;2.00;;
26082;SDS011;13848;49.018;12.078;2023-02-01T13:40:26;7.63;;;2.63;;
26082;SDS011;13848;49.018;12.078;2023-02-01T13:43:02;7.45;;;2.20;;
26082;SDS011;13848;49.018;12.078;2023-02-01T13:48:06;6.30;;;2.28;;
26082;SDS011;13848;49.018;12.078;2023-02-01T13:50:48;5.85;;;1.85;;
26082;SDS011;13848;49.018;12.078;2023-02-01T13:53:18;7.63;;;2.00;;
26082;SDS011;13848;49.018;12.078;2023-02-01T13:55:54;5.95;;;1.55;;
26082;SDS011;13848;49.018;12.078;2023-02-01T14:01:31;6.82;;;1.90;;
26082;SDS011;13848;49.018;12.078;2023-02-01T14:03:58;4.22;;;1.95;;
26082;SDS011;13848;49.018;12.078;2023-02-01T14:06:36;6.15;;;2.15;;
26082;SDS011;13848;49.018;12.078;2023-02-01T14:09:19;7.05;;;1.77;;
26082;SDS011;13848;49.018;12.078;2023-02-01T14:11:57;3.10;;;1.55;;
26082;SDS011;13848;49.018;12.078;2023-02-01T14:23:13;6.00;;;1.70;;
26082;SDS011;13848;49.018;12.078;2023-02-01T14:25:41;6.47;;;1.88;;
26082;SDS011;13848;49.018;12.078;2023-02-01T14:28:12;10.15;;;1.77;;
26082;SDS011;13848;49.018;12.078;2023-02-01T14:30:48;6.18;;;1.70;;
26082;SDS011;13848;49.018;12.078;2023-02-01T14:33:20;6.10;;;1.65;;
26082;SDS011;13848;49.018;12.078;2023-02-01T14:35:55;7.38;;;1.58;;
26082;SDS011;13848;49.018;12.078;2023-02-01T14:38:29;4.30;;;1.60;;
26082;SDS011;13848;49.018;12.078;2023-02-01T14:41:09;4.13;;;1.52;;
26082;SDS011;13848;49.018;12.078;2023-02-01T14:43:50;6.43;;;1.50;;
26082;SDS011;13848;49.018;12.078;2023-02-01T14:49:32;8.82;;;1.73;;
26082;SDS011;13848;49.018;12.078;2023-02-01T14:52:02;7.30;;;2.03;;
26082;SDS011;13848;49.018;12.078;2023-02-01T14:54:32;9.10;;;2.25;;
26082;SDS011;13848;49.018;12.078;2023-02-01T14:56:58;3.83;;;1.60;;
26082;SDS011;13848;49.018;12.078;2023-02-01T14:59:25;3.88;;;1.45;;
26082;SDS011;13848;49.018;12.078;2023-02-01T15:01:57;6.18;;;1.67;;
26082;SDS011;13848;49.018;12.078;2023-02-01T15:04:24;8.98;;;1.75;;
26082;SDS011;13848;49.018;12.078;2023-02-01T15:06:52;7.28;;;1.88;;
26082;SDS011;13848;49.018;12.078;2023-02-01T15:09:20;6.60;;;1.95;;
26082;SDS011;13848;49.018;12.078;2023-02-01T15:11:55;10.23;;;1.98;;
26082;SDS011;13848;49.018;12.078;2023-02-01T15:14:23;6.68;;;1.63;;
26082;SDS011;13848;49.018;12.078;2023-02-01T15:16:49;4.18;;;1.65;;
26082;SDS011;13848;49.018;12.078;2023-02-01T15:19:15;4.90;;;1.25;;
26082;SDS011;13848;49.018;12.078;2023-02-01T15:21:45;5.13;;;1.50;;